createdAt,value
2023-04-21T00:00:17.936Z,937.81
2023-04-21T00:01:17.942Z,937.82
2023-04-21T00:02:17.996Z,937.84
2023-04-21T00:03:18.312Z,937.84
2023-04-21T00:04:18.182Z,937.83
2023-04-21T00:05:18.195Z,937.81
2023-04-21T00:06:18.019Z,937.87
2023-04-21T00:07:18.032Z,937.85
2023-04-21T00:08:18.051Z,937.87
2023-04-21T00:09:18.339Z,937.90
2023-04-21T00:10:18.081Z,937.89
2023-04-21T00:11:18.118Z,937.91
2023-04-21T00:12:18.114Z,937.92
2023-04-21T00:13:18.116Z,937.94
2023-04-21T00:14:18.125Z,937.97
2023-04-21T00:15:18.253Z,937.94
2023-04-21T00:16:18.189Z,937.96
2023-04-21T00:17:18.178Z,938.01
2023-04-21T00:18:18.192Z,937.98
2023-04-21T00:19:18.540Z,938.02
2023-04-21T00:20:18.208Z,938.01
2023-04-21T00:21:18.329Z,937.99
2023-04-21T00:22:18.238Z,938.01
2023-04-21T00:23:18.251Z,938.03
2023-04-21T00:24:18.271Z,938.02
2023-04-21T00:25:18.299Z,938.04
2023-04-21T00:26:18.406Z,938.09
2023-04-21T00:27:18.308Z,938.08
2023-04-21T00:28:18.320Z,938.12
2023-04-21T00:29:18.566Z,938.08
2023-04-21T00:30:18.367Z,938.12
2023-04-21T00:31:18.402Z,938.16
2023-04-21T00:32:18.537Z,938.17
2023-04-21T00:33:18.408Z,938.19
2023-04-21T00:34:18.415Z,938.21
2023-04-21T00:35:18.430Z,938.24
2023-04-21T00:36:18.424Z,938.26
2023-04-21T00:37:18.440Z,938.24
2023-04-21T00:38:18.547Z,938.26
2023-04-21T00:39:18.937Z,938.27
2023-04-21T00:40:18.490Z,938.26
2023-04-21T00:41:18.520Z,938.29
2023-04-21T00:42:18.507Z,938.33
2023-04-21T00:43:18.519Z,938.32
2023-04-21T00:44:18.634Z,938.37
2023-04-21T00:45:18.557Z,938.39
2023-04-21T00:46:18.568Z,938.40
2023-04-21T00:47:18.653Z,938.42
2023-04-21T00:48:18.600Z,938.45
2023-04-21T00:49:18.976Z,938.41
2023-04-21T00:50:18.629Z,938.46
2023-04-21T00:51:18.643Z,938.48
2023-04-21T00:52:18.662Z,938.48
2023-04-21T00:53:18.675Z,938.50
2023-04-21T00:54:18.691Z,938.53
2023-04-21T00:55:18.809Z,938.54
2023-04-21T00:56:18.717Z,938.54
2023-04-21T00:57:18.747Z,938.56
2023-04-21T00:58:18.742Z,938.55
2023-04-21T00:59:19.050Z,938.55
2023-04-21T01:00:18.798Z,938.59
2023-04-21T01:01:18.917Z,938.61
2023-04-21T01:02:18.892Z,938.56
2023-04-21T01:03:18.875Z,938.56
2023-04-21T01:04:18.871Z,938.58
2023-04-21T01:05:18.848Z,938.60
2023-04-21T01:06:18.854Z,938.60
2023-04-21T01:07:18.971Z,938.58
2023-04-21T01:08:18.886Z,938.58
2023-04-21T01:09:19.153Z,938.62
2023-04-21T01:10:18.988Z,938.59
2023-04-21T01:11:18.949Z,938.60
2023-04-21T01:12:19.043Z,938.64
2023-04-21T01:13:18.979Z,938.65
2023-04-21T01:14:18.972Z,938.64
2023-04-21T01:15:18.985Z,938.62
2023-04-21T01:16:19.060Z,938.63
2023-04-21T01:17:19.030Z,938.65
2023-04-21T01:18:19.128Z,938.68
2023-04-21T01:19:19.212Z,938.71
2023-04-21T01:20:19.052Z,938.71
2023-04-21T01:21:19.073Z,938.69
2023-04-21T01:22:19.078Z,938.72
2023-04-21T01:23:19.199Z,938.70
2023-04-21T01:24:19.120Z,938.72
2023-04-21T01:25:19.123Z,938.73
2023-04-21T01:26:19.132Z,938.74
2023-04-21T01:27:19.159Z,938.73
2023-04-21T01:28:19.159Z,938.74
2023-04-21T01:29:19.519Z,938.79
2023-04-21T01:30:19.186Z,938.83
2023-04-21T01:31:19.204Z,938.82
2023-04-21T01:32:19.360Z,938.77
2023-04-21T01:33:19.284Z,938.89
2023-04-21T01:34:19.352Z,938.85
2023-04-21T01:35:19.268Z,938.84
2023-04-21T01:36:19.288Z,938.86
2023-04-21T01:37:19.292Z,938.89
2023-04-21T01:38:19.519Z,938.87
2023-04-21T01:39:19.650Z,938.92
2023-04-21T01:40:19.434Z,938.84
2023-04-21T01:41:19.348Z,938.84
2023-04-21T01:42:19.362Z,938.82
2023-04-21T01:43:19.369Z,938.86
2023-04-21T01:44:19.385Z,938.86
2023-04-21T01:45:19.416Z,938.89
2023-04-21T01:46:19.559Z,938.91
2023-04-21T01:47:19.434Z,938.91
2023-04-21T01:48:19.449Z,938.91
2023-04-21T01:49:19.598Z,938.91
2023-04-21T01:50:19.474Z,938.93
2023-04-21T01:51:19.482Z,938.90
2023-04-21T01:52:19.600Z,938.90
2023-04-21T01:53:19.512Z,938.87
2023-04-21T01:54:19.530Z,938.84
2023-04-21T01:55:19.540Z,938.90
2023-04-21T01:56:19.558Z,938.85
2023-04-21T01:57:19.801Z,938.89
2023-04-21T01:58:19.680Z,938.86
2023-04-21T01:59:19.874Z,938.87
2023-04-21T02:00:19.637Z,938.87
2023-04-21T02:01:19.677Z,938.82
2023-04-21T02:02:19.683Z,938.83
2023-04-21T02:03:19.872Z,938.84
2023-04-21T02:04:19.885Z,938.83
2023-04-21T02:05:19.681Z,938.88
2023-04-21T02:06:19.704Z,938.88
2023-04-21T02:07:19.703Z,938.87
2023-04-21T02:08:19.719Z,938.90
2023-04-21T02:09:20.054Z,938.87
2023-04-21T02:10:19.853Z,938.89
2023-04-21T02:11:19.772Z,938.87
2023-04-21T02:12:19.780Z,938.91
2023-04-21T02:13:19.790Z,938.86
2023-04-21T02:14:19.806Z,938.89
2023-04-21T02:15:19.823Z,938.90
2023-04-21T02:16:20.034Z,938.88
2023-04-21T02:17:19.871Z,938.90
2023-04-21T02:18:19.854Z,938.86
2023-04-21T02:19:20.139Z,938.89
2023-04-21T02:20:19.883Z,938.85
2023-04-21T02:21:20.011Z,938.83
2023-04-21T02:22:19.924Z,938.82
2023-04-21T02:23:19.939Z,938.84
2023-04-21T02:24:19.949Z,938.85
2023-04-21T02:25:19.964Z,938.84
2023-04-21T02:26:19.983Z,938.81
2023-04-21T02:27:20.085Z,938.84
2023-04-21T02:28:19.987Z,938.81
2023-04-21T02:29:20.112Z,938.83
2023-04-21T02:30:20.020Z,938.84
2023-04-21T02:31:20.121Z,938.78
2023-04-21T02:32:25.811Z,938.80
2023-04-21T02:33:20.246Z,938.73
2023-04-21T02:34:20.074Z,938.79
2023-04-21T02:35:20.093Z,938.77
2023-04-21T02:36:20.106Z,938.78
2023-04-21T02:37:20.117Z,938.77
2023-04-21T02:38:20.233Z,938.79
2023-04-21T02:39:20.313Z,938.79
2023-04-21T02:40:20.264Z,938.78
2023-04-21T02:41:20.177Z,938.78
2023-04-21T02:42:20.192Z,938.74
2023-04-21T02:43:20.201Z,938.73
2023-04-21T02:44:20.323Z,938.74
2023-04-21T02:45:20.225Z,938.77
2023-04-21T02:46:20.294Z,938.73
2023-04-21T02:47:20.309Z,938.75
2023-04-21T02:48:20.270Z,938.77
2023-04-21T02:49:20.721Z,938.73
2023-04-21T02:50:20.301Z,938.75
2023-04-21T02:51:20.330Z,938.72
2023-04-21T02:52:20.328Z,938.71
2023-04-21T02:53:20.348Z,938.73
2023-04-21T02:54:20.350Z,938.76
2023-04-21T02:55:20.467Z,938.71
2023-04-21T02:56:20.379Z,938.72
2023-04-21T02:57:20.398Z,938.69
2023-04-21T02:58:20.411Z,938.69
2023-04-21T02:59:20.664Z,938.72
2023-04-21T03:00:20.430Z,938.72
2023-04-21T03:01:20.686Z,938.68
2023-04-21T03:02:20.496Z,938.65
2023-04-21T03:03:20.622Z,938.64
2023-04-21T03:04:20.588Z,938.62
2023-04-21T03:05:20.522Z,938.64
2023-04-21T03:06:20.622Z,938.62
2023-04-21T03:07:20.530Z,938.58
2023-04-21T03:08:20.535Z,938.59
2023-04-21T03:09:20.735Z,938.56
2023-04-21T03:10:20.572Z,938.58
2023-04-21T03:11:20.584Z,938.52
2023-04-21T03:12:20.690Z,938.54
2023-04-21T03:13:20.605Z,938.57
2023-04-21T03:14:20.628Z,938.54
2023-04-21T03:15:20.631Z,938.51
2023-04-21T03:16:20.691Z,938.52
2023-04-21T03:17:20.692Z,938.46
2023-04-21T03:18:20.881Z,938.52
2023-04-21T03:19:20.985Z,938.49
2023-04-21T03:20:20.698Z,938.51
2023-04-21T03:21:20.739Z,938.49
2023-04-21T03:22:20.735Z,938.50
2023-04-21T03:23:20.752Z,938.48
2023-04-21T03:24:20.856Z,938.49
2023-04-21T03:25:20.792Z,938.47
2023-04-21T03:26:20.782Z,938.44
2023-04-21T03:27:20.810Z,938.48
2023-04-21T03:28:20.816Z,938.43
2023-04-21T03:29:21.073Z,938.43
2023-04-21T03:30:20.850Z,938.38
2023-04-21T03:31:20.851Z,938.39
2023-04-21T03:32:20.996Z,938.40
2023-04-21T03:33:20.886Z,938.39
2023-04-21T03:34:20.904Z,938.39
2023-04-21T03:35:21.014Z,938.38
2023-04-21T03:36:20.938Z,938.43
2023-04-21T03:37:20.958Z,938.38
2023-04-21T03:38:20.956Z,938.32
2023-04-21T03:39:20.982Z,938.34
2023-04-21T03:40:20.986Z,938.32
2023-04-21T03:41:21.087Z,938.31
2023-04-21T03:42:21.014Z,938.35
2023-04-21T03:43:21.025Z,938.27
2023-04-21T03:44:21.041Z,938.26
2023-04-21T03:45:21.043Z,938.21
2023-04-21T03:46:21.167Z,938.24
2023-04-21T03:47:21.076Z,938.17
2023-04-21T03:48:21.099Z,938.20
2023-04-21T03:49:21.329Z,938.18
2023-04-21T03:50:21.128Z,938.16
2023-04-21T03:51:21.132Z,938.16
2023-04-21T03:52:21.239Z,938.20
2023-04-21T03:53:21.171Z,938.18
2023-04-21T03:54:21.164Z,938.18
2023-04-21T03:55:21.191Z,938.18
2023-04-21T03:56:21.204Z,938.22
2023-04-21T03:57:21.315Z,938.21
2023-04-21T03:58:21.229Z,938.18
2023-04-21T03:59:21.502Z,938.17
2023-04-21T04:00:21.259Z,938.18
2023-04-21T04:01:21.261Z,938.14
2023-04-21T04:02:21.388Z,938.16
2023-04-21T04:03:23.516Z,938.16
2023-04-21T04:04:21.490Z,938.13
2023-04-21T04:05:21.383Z,938.13
2023-04-21T04:06:21.352Z,938.12
2023-04-21T04:07:21.363Z,938.09
2023-04-21T04:08:21.360Z,938.11
2023-04-21T04:09:21.610Z,938.09
2023-04-21T04:10:21.394Z,938.06
2023-04-21T04:11:21.405Z,938.09
2023-04-21T04:12:21.420Z,938.04
2023-04-21T04:13:21.433Z,938.03
2023-04-21T04:14:21.436Z,938.04
2023-04-21T04:15:21.564Z,938.02
2023-04-21T04:16:21.551Z,938.00
2023-04-21T04:17:21.484Z,937.97
2023-04-21T04:18:21.504Z,937.96
2023-04-21T04:19:21.766Z,937.98
2023-04-21T04:20:21.534Z,937.95
2023-04-21T04:21:21.637Z,937.96
2023-04-21T04:22:21.556Z,937.95
2023-04-21T04:23:21.576Z,937.93
2023-04-21T04:24:21.572Z,937.91
2023-04-21T04:25:21.625Z,937.89
2023-04-21T04:26:21.600Z,937.87
2023-04-21T04:27:21.712Z,937.86
2023-04-21T04:28:21.633Z,937.85
2023-04-21T04:29:21.696Z,937.84
2023-04-21T04:30:21.651Z,937.88
2023-04-21T04:31:21.715Z,937.84
2023-04-21T04:32:21.682Z,937.83
2023-04-21T04:33:21.792Z,937.80
2023-04-21T04:34:21.719Z,937.78
2023-04-21T04:35:21.730Z,937.75
2023-04-21T04:36:21.739Z,937.77
2023-04-21T04:37:21.754Z,937.77
2023-04-21T04:38:21.759Z,937.74
2023-04-21T04:39:21.904Z,937.76
2023-04-21T04:40:21.793Z,937.76
2023-04-21T04:41:21.822Z,937.71
2023-04-21T04:42:21.817Z,937.72
2023-04-21T04:43:21.834Z,937.72
2023-04-21T04:44:22.146Z,937.73
2023-04-21T04:45:21.986Z,937.71
2023-04-21T04:46:21.884Z,937.66
2023-04-21T04:47:21.926Z,937.64
2023-04-21T04:48:21.893Z,937.60
2023-04-21T04:49:24.022Z,937.64
2023-04-21T04:50:22.030Z,937.64
2023-04-21T04:51:21.933Z,937.63
2023-04-21T04:52:21.952Z,937.64
2023-04-21T04:53:21.959Z,937.67
2023-04-21T04:54:22.166Z,937.64
2023-04-21T04:55:21.992Z,937.63
2023-04-21T04:56:22.104Z,937.62
2023-04-21T04:57:22.040Z,937.63
2023-04-21T04:58:22.032Z,937.58
2023-04-21T04:59:22.049Z,937.59
2023-04-21T05:00:22.061Z,937.63
2023-04-21T05:01:22.204Z,937.57
2023-04-21T05:02:22.205Z,937.60
2023-04-21T05:03:22.384Z,937.58
2023-04-21T05:04:22.775Z,937.57
2023-04-21T05:05:22.121Z,937.56
2023-04-21T05:06:22.137Z,937.55
2023-04-21T05:07:22.269Z,937.58
2023-04-21T05:08:22.178Z,937.57
2023-04-21T05:09:22.188Z,937.62
2023-04-21T05:10:22.200Z,937.57
2023-04-21T05:11:22.207Z,937.59
2023-04-21T05:12:22.218Z,937.58
2023-04-21T05:13:22.363Z,937.57
2023-04-21T05:14:22.326Z,937.57
2023-04-21T05:15:22.258Z,937.56
2023-04-21T05:16:22.361Z,937.54
2023-04-21T05:17:22.329Z,937.58
2023-04-21T05:18:22.401Z,937.57
2023-04-21T05:19:22.320Z,937.54
2023-04-21T05:20:22.333Z,937.55
2023-04-21T05:21:22.341Z,937.54
2023-04-21T05:22:22.354Z,937.52
2023-04-21T05:23:22.381Z,937.53
2023-04-21T05:24:22.487Z,937.53
2023-04-21T05:25:22.401Z,937.50
2023-04-21T05:26:22.413Z,937.49
2023-04-21T05:27:22.421Z,937.49
2023-04-21T05:28:22.432Z,937.48
2023-04-21T05:29:22.466Z,937.48
2023-04-21T05:30:22.561Z,937.45
2023-04-21T05:31:22.475Z,937.42
2023-04-21T05:32:22.964Z,937.43
2023-04-21T05:33:22.595Z,937.43
2023-04-21T05:34:22.514Z,937.42
2023-04-21T05:35:22.636Z,937.39
2023-04-21T05:36:22.549Z,937.38
2023-04-21T05:37:22.558Z,937.40
2023-04-21T05:38:22.570Z,937.35
2023-04-21T05:39:22.582Z,937.39
2023-04-21T05:40:22.607Z,937.43
2023-04-21T05:41:22.776Z,937.40
2023-04-21T05:42:22.642Z,937.36
2023-04-21T05:43:22.643Z,937.34
2023-04-21T05:44:22.669Z,937.34
2023-04-21T05:45:22.690Z,937.31
2023-04-21T05:46:22.728Z,937.35
2023-04-21T05:47:22.819Z,937.33
2023-04-21T05:48:22.703Z,937.35
2023-04-21T05:49:22.719Z,937.32
2023-04-21T05:50:22.730Z,937.35
2023-04-21T05:51:22.744Z,937.36
2023-04-21T05:52:22.765Z,937.32
2023-04-21T05:53:22.872Z,937.32
2023-04-21T05:54:22.792Z,937.30
2023-04-21T05:55:22.803Z,937.31
2023-04-21T05:56:22.815Z,937.37
2023-04-21T05:57:22.830Z,937.32
2023-04-21T05:58:22.943Z,937.34
2023-04-21T05:59:22.892Z,937.37
2023-04-21T06:00:22.878Z,937.37
2023-04-21T06:01:22.902Z,937.35
2023-04-21T06:02:23.069Z,937.31
2023-04-21T06:03:23.037Z,937.32
2023-04-21T06:04:23.460Z,937.33
2023-04-21T06:05:22.989Z,937.33
2023-04-21T06:06:22.950Z,937.30
2023-04-21T06:07:22.968Z,937.31
2023-04-21T06:08:22.968Z,937.26
2023-04-21T06:09:23.186Z,937.29
2023-04-21T06:10:23.076Z,937.23
2023-04-21T06:11:23.011Z,937.26
2023-04-21T06:12:23.021Z,937.29
2023-04-21T06:13:23.043Z,937.29
2023-04-21T06:14:23.058Z,937.27
2023-04-21T06:15:23.160Z,937.24
2023-04-21T06:16:23.109Z,937.27
2023-04-21T06:17:23.122Z,937.24
2023-04-21T06:18:23.114Z,937.22
2023-04-21T06:19:23.126Z,937.25
2023-04-21T06:20:23.231Z,937.26
2023-04-21T06:21:23.155Z,937.20
2023-04-21T06:22:23.163Z,937.21
2023-04-21T06:23:23.175Z,937.22
2023-04-21T06:24:23.183Z,937.22
2023-04-21T06:25:23.194Z,937.20
2023-04-21T06:26:23.317Z,937.16
2023-04-21T06:27:23.231Z,937.12
2023-04-21T06:28:23.233Z,937.10
2023-04-21T06:29:23.255Z,937.10
2023-04-21T06:30:23.260Z,937.06
2023-04-21T06:31:23.342Z,937.04
2023-04-21T06:32:23.451Z,937.08
2023-04-21T06:33:23.319Z,937.04
2023-04-21T06:34:23.326Z,937.05
2023-04-21T06:35:23.351Z,937.07
2023-04-21T06:36:23.341Z,937.07
2023-04-21T06:37:23.456Z,937.05
2023-04-21T06:38:23.376Z,937.01
2023-04-21T06:39:23.389Z,936.99
2023-04-21T06:40:23.404Z,936.97
2023-04-21T06:41:24.879Z,936.90
2023-04-21T06:42:23.429Z,936.91
2023-04-21T06:43:23.545Z,936.93
2023-04-21T06:44:23.455Z,936.92
2023-04-21T06:45:23.465Z,936.88
2023-04-21T06:46:23.560Z,936.87
2023-04-21T06:47:23.687Z,936.89
2023-04-21T06:48:23.500Z,936.87
2023-04-21T06:49:23.634Z,936.90
2023-04-21T06:50:23.533Z,936.85
2023-04-21T06:51:23.549Z,936.80
2023-04-21T06:52:23.565Z,936.77
2023-04-21T06:53:23.576Z,936.79
2023-04-21T06:54:23.707Z,936.78
2023-04-21T06:55:23.598Z,936.74
2023-04-21T06:56:23.605Z,936.76
2023-04-21T06:57:23.635Z,936.75
2023-04-21T06:58:23.654Z,936.69
2023-04-21T06:59:23.672Z,936.70
2023-04-21T07:00:23.778Z,936.77
2023-04-21T07:01:23.749Z,936.75
2023-04-21T07:02:23.827Z,936.75
2023-04-21T07:03:23.804Z,936.73
2023-04-21T07:04:23.766Z,936.76
2023-04-21T07:05:23.779Z,936.70
2023-04-21T07:06:23.844Z,936.68
2023-04-21T07:07:23.763Z,936.65
2023-04-21T07:08:23.769Z,936.66
2023-04-21T07:09:23.794Z,936.66
2023-04-21T07:10:23.806Z,936.64
2023-04-21T07:11:23.827Z,936.65
2023-04-21T07:12:23.931Z,936.65
2023-04-21T07:13:23.844Z,936.59
2023-04-21T07:14:23.865Z,936.58
2023-04-21T07:15:23.872Z,936.55
2023-04-21T07:16:23.920Z,936.59
2023-04-21T07:17:23.917Z,936.56
2023-04-21T07:18:24.036Z,936.57
2023-04-21T07:19:23.922Z,936.57
2023-04-21T07:20:23.928Z,936.59
2023-04-21T07:21:23.967Z,936.60
2023-04-21T07:22:23.968Z,936.60
2023-04-21T07:23:24.083Z,936.59
2023-04-21T07:24:23.985Z,936.60
2023-04-21T07:25:23.998Z,936.55
2023-04-21T07:26:24.022Z,936.53
2023-04-21T07:27:24.025Z,936.53
2023-04-21T07:28:24.049Z,936.50
2023-04-21T07:29:24.152Z,936.46
2023-04-21T07:30:24.073Z,936.46
2023-04-21T07:31:24.121Z,936.46
2023-04-21T07:32:24.112Z,936.44
2023-04-21T07:33:24.111Z,936.42
2023-04-21T07:34:24.222Z,936.41
2023-04-21T07:35:24.140Z,936.39
2023-04-21T07:36:24.153Z,936.41
2023-04-21T07:37:24.933Z,936.40
2023-04-21T07:38:24.171Z,936.43
2023-04-21T07:39:24.183Z,936.45
2023-04-21T07:40:24.323Z,936.40
2023-04-21T07:41:24.219Z,936.41
2023-04-21T07:42:24.221Z,936.39
2023-04-21T07:43:24.244Z,936.34
2023-04-21T07:44:24.454Z,936.38
2023-04-21T07:45:24.359Z,936.39
2023-04-21T07:46:24.329Z,936.38
2023-04-21T07:47:24.349Z,936.38
2023-04-21T07:48:24.296Z,936.40
2023-04-21T07:49:24.315Z,936.41
2023-04-21T07:50:24.411Z,936.41
2023-04-21T07:51:24.440Z,936.38
2023-04-21T07:52:24.382Z,936.42
2023-04-21T07:53:24.396Z,936.43
2023-04-21T07:54:24.378Z,936.41
2023-04-21T07:55:24.410Z,936.43
2023-04-21T07:56:24.411Z,936.44
2023-04-21T07:57:24.517Z,936.46
2023-04-21T07:58:24.640Z,936.47
2023-04-21T07:59:24.451Z,936.45
2023-04-21T08:00:24.612Z,936.46
2023-04-21T08:01:24.468Z,936.47
2023-04-21T08:02:24.618Z,936.51
2023-04-21T08:03:25.041Z,936.48
2023-04-21T08:04:24.841Z,936.47
2023-04-21T08:05:27.386Z,936.48
2023-04-21T08:06:24.557Z,936.47
2023-04-21T08:07:24.561Z,936.45
2023-04-21T08:08:24.607Z,936.41
2023-04-21T08:09:24.704Z,936.42
2023-04-21T08:10:24.744Z,936.42
2023-04-21T08:11:24.607Z,936.46
2023-04-21T08:12:24.614Z,936.44
2023-04-21T08:13:24.635Z,936.50
2023-04-21T08:14:24.652Z,936.47
2023-04-21T08:15:24.771Z,936.49
2023-04-21T08:16:24.779Z,936.53
2023-04-21T08:17:24.753Z,936.52
2023-04-21T08:18:24.702Z,936.49
2023-04-21T08:19:24.708Z,936.53
2023-04-21T08:20:24.718Z,936.50
2023-04-21T08:21:24.857Z,936.51
2023-04-21T08:22:24.863Z,936.52
2023-04-21T08:23:24.801Z,936.50
2023-04-21T08:24:24.783Z,936.51
2023-04-21T08:25:24.939Z,936.51
2023-04-21T08:26:24.801Z,936.54
2023-04-21T08:27:24.914Z,936.50
2023-04-21T08:28:24.832Z,936.55
2023-04-21T08:29:24.836Z,936.57
2023-04-21T08:30:24.851Z,936.59
2023-04-21T08:31:24.875Z,936.56
2023-04-21T08:32:25.029Z,936.61
2023-04-21T08:33:24.925Z,936.56
2023-04-21T08:34:27.361Z,936.61
2023-04-21T08:35:24.919Z,936.59
2023-04-21T08:36:29.568Z,936.60
2023-04-21T08:37:24.950Z,936.57
2023-04-21T08:38:25.097Z,936.61
2023-04-21T08:39:24.974Z,936.64
2023-04-21T08:40:24.989Z,936.64
2023-04-21T08:41:25.016Z,936.64
2023-04-21T08:42:25.007Z,936.67
2023-04-21T08:43:25.133Z,936.67
2023-04-21T08:44:25.035Z,936.66
2023-04-21T08:45:25.084Z,936.68
2023-04-21T08:46:25.225Z,936.67
2023-04-21T08:47:25.098Z,936.70
2023-04-21T08:48:25.090Z,936.76
2023-04-21T08:49:25.215Z,936.76
2023-04-21T08:50:25.114Z,936.78
2023-04-21T08:51:25.140Z,936.77
2023-04-21T08:52:25.153Z,936.79
2023-04-21T08:53:25.156Z,936.81
2023-04-21T08:54:25.174Z,936.79
2023-04-21T08:55:25.289Z,936.78
2023-04-21T08:56:25.192Z,936.78
2023-04-21T08:57:25.258Z,936.80
2023-04-21T08:58:25.219Z,936.82
2023-04-21T08:59:25.240Z,936.85
2023-04-21T09:00:25.346Z,936.85
2023-04-21T09:01:25.308Z,936.82
2023-04-21T09:02:25.428Z,936.87
2023-04-21T09:03:26.257Z,936.89
2023-04-21T09:04:25.507Z,936.84
2023-04-21T09:05:25.508Z,936.85
2023-04-21T09:06:25.473Z,936.83
2023-04-21T09:07:25.338Z,936.84
2023-04-21T09:08:25.352Z,936.84
2023-04-21T09:09:25.365Z,936.87
2023-04-21T09:10:25.386Z,936.89
2023-04-21T09:11:25.397Z,936.89
2023-04-21T09:12:25.506Z,936.95
2023-04-21T09:13:25.438Z,936.89
2023-04-21T09:14:25.457Z,936.90
2023-04-21T09:15:25.455Z,936.90
2023-04-21T09:16:25.470Z,936.91
2023-04-21T09:17:25.492Z,936.94
2023-04-21T09:18:25.588Z,936.98
2023-04-21T09:19:25.501Z,936.98
2023-04-21T09:20:25.506Z,936.97
2023-04-21T09:21:25.522Z,936.98
2023-04-21T09:22:25.536Z,937.02
2023-04-21T09:23:25.557Z,937.00
2023-04-21T09:24:25.667Z,936.99
2023-04-21T09:25:25.582Z,937.00
2023-04-21T09:26:25.585Z,936.99
2023-04-21T09:27:25.613Z,936.99
2023-04-21T09:28:25.613Z,937.01
2023-04-21T09:29:25.653Z,937.00
2023-04-21T09:30:25.764Z,937.04
2023-04-21T09:31:25.757Z,937.03
2023-04-21T09:32:25.722Z,937.02
2023-04-21T09:33:31.037Z,937.06
2023-04-21T09:34:25.715Z,937.10
2023-04-21T09:35:25.704Z,937.15
2023-04-21T09:36:25.825Z,937.17
2023-04-21T09:37:25.737Z,937.16
2023-04-21T09:38:25.751Z,937.18
2023-04-21T09:39:40.642Z,937.18
2023-04-21T09:40:25.769Z,937.16
2023-04-21T09:41:25.782Z,937.15
2023-04-21T09:42:25.898Z,937.22
2023-04-21T09:43:25.808Z,937.21
2023-04-21T09:44:25.936Z,937.20
2023-04-21T09:45:39.038Z,937.24
2023-04-21T09:46:26.465Z,937.22
2023-04-21T09:47:25.985Z,937.24
2023-04-21T09:48:25.878Z,937.26
2023-04-21T09:49:25.894Z,937.24
2023-04-21T09:51:01.870Z,937.23
2023-04-21T09:51:42.208Z,937.20
2023-04-21T09:52:25.934Z,937.21
2023-04-21T09:53:26.046Z,937.21
2023-04-21T09:54:30.172Z,937.22
2023-04-21T09:55:25.964Z,937.22
2023-04-21T09:56:25.986Z,937.29
2023-04-21T09:57:26.006Z,937.27
2023-04-21T09:58:26.135Z,937.30
2023-04-21T09:59:26.014Z,937.30
2023-04-21T10:00:26.033Z,937.33
2023-04-21T10:01:26.095Z,937.37
2023-04-21T10:02:26.158Z,937.34
2023-04-21T10:03:26.257Z,937.36
2023-04-21T10:04:26.643Z,937.38
2023-04-21T10:05:26.268Z,937.36
2023-04-21T10:06:26.118Z,937.34
2023-04-21T10:07:26.130Z,937.38
2023-04-21T10:08:26.132Z,937.37
2023-04-21T10:09:26.151Z,937.37
2023-04-21T10:10:26.257Z,937.38
2023-04-21T10:11:26.189Z,937.42
2023-04-21T10:12:26.190Z,937.38
2023-04-21T10:13:26.206Z,937.35
2023-04-21T10:14:26.214Z,937.45
2023-04-21T10:15:26.222Z,937.45
2023-04-21T10:16:26.415Z,937.47
2023-04-21T10:17:26.330Z,937.45
2023-04-21T10:18:26.265Z,937.47
2023-04-21T10:19:26.306Z,937.47
2023-04-21T10:20:26.292Z,937.41
2023-04-21T10:21:26.305Z,937.43
2023-04-21T10:22:26.421Z,937.43
2023-04-21T10:23:26.341Z,937.45
2023-04-21T10:24:26.352Z,937.47
2023-04-21T10:25:26.351Z,937.46
2023-04-21T10:26:26.366Z,937.48
2023-04-21T10:27:26.377Z,937.44
2023-04-21T10:28:26.492Z,937.47
2023-04-21T10:29:26.403Z,937.47
2023-04-21T10:30:26.426Z,937.45
2023-04-21T10:31:26.541Z,937.47
2023-04-21T10:32:26.543Z,937.51
2023-04-21T10:33:26.494Z,937.56
2023-04-21T10:34:26.572Z,937.55
2023-04-21T10:35:26.489Z,937.59
2023-04-21T10:36:26.498Z,937.57
2023-04-21T10:37:26.531Z,937.59
2023-04-21T10:38:26.528Z,937.61
2023-04-21T10:39:26.541Z,937.61
2023-04-21T10:40:41.936Z,937.65
2023-04-21T10:41:26.562Z,937.62
2023-04-21T10:42:26.584Z,937.66
2023-04-21T10:43:26.614Z,937.67
2023-04-21T10:44:26.605Z,937.68
2023-04-21T10:45:26.613Z,937.68
2023-04-21T10:46:26.838Z,937.66
2023-04-21T10:47:26.705Z,937.62
2023-04-21T10:48:26.669Z,937.64
2023-04-21T10:49:26.686Z,937.63
2023-04-21T10:50:26.674Z,937.68
2023-04-21T10:51:26.794Z,937.66
2023-04-21T10:52:26.699Z,937.70
2023-04-21T10:53:26.712Z,937.69
2023-04-21T10:54:26.732Z,937.69
2023-04-21T10:55:26.743Z,937.73
2023-04-21T10:56:26.750Z,937.81
2023-04-21T10:57:26.873Z,937.74
2023-04-21T10:58:26.778Z,937.79
2023-04-21T10:59:26.800Z,937.81
2023-04-21T11:00:26.813Z,937.80
2023-04-21T11:01:26.868Z,937.84
2023-04-21T11:02:26.913Z,937.84
2023-04-21T11:03:27.114Z,937.86
2023-04-21T11:04:27.306Z,937.85
2023-04-21T11:05:26.973Z,937.85
2023-04-21T11:06:26.887Z,937.88
2023-04-21T11:07:26.890Z,937.85
2023-04-21T11:08:27.010Z,937.94
2023-04-21T11:09:26.940Z,937.93
2023-04-21T11:10:26.935Z,937.94
2023-04-21T11:11:26.949Z,937.91
2023-04-21T11:12:26.952Z,937.89
2023-04-21T11:13:26.973Z,937.89
2023-04-21T11:14:27.076Z,937.92
2023-04-21T11:15:26.999Z,937.92
2023-04-21T11:16:27.048Z,937.95
2023-04-21T11:17:27.071Z,937.91
2023-04-21T11:18:27.036Z,937.99
2023-04-21T11:19:27.053Z,938.01
2023-04-21T11:20:27.183Z,937.99
2023-04-21T11:21:27.102Z,937.97
2023-04-21T11:22:27.187Z,937.98
2023-04-21T11:23:27.097Z,937.98
2023-04-21T11:24:27.150Z,938.02
2023-04-21T11:25:27.223Z,938.07
2023-04-21T11:26:27.133Z,938.11
2023-04-21T11:27:27.144Z,938.10
2023-04-21T11:28:27.157Z,938.13
2023-04-21T11:29:27.168Z,938.12
2023-04-21T11:30:27.191Z,938.22
2023-04-21T11:31:27.332Z,938.16
2023-04-21T11:32:27.247Z,938.17
2023-04-21T11:33:27.234Z,938.20
2023-04-21T11:34:27.237Z,938.15
2023-04-21T11:35:27.265Z,938.17
2023-04-21T11:36:27.263Z,938.18
2023-04-21T11:37:27.389Z,938.22
2023-04-21T11:38:27.295Z,938.26
2023-04-21T11:39:27.322Z,938.22
2023-04-21T11:40:27.313Z,938.28
2023-04-21T11:41:27.334Z,938.26
2023-04-21T11:42:27.361Z,938.33
2023-04-21T11:43:27.461Z,938.34
2023-04-21T11:44:27.367Z,938.34
2023-04-21T11:45:27.390Z,938.36
2023-04-21T11:46:27.430Z,938.37
2023-04-21T11:47:27.481Z,938.37
2023-04-21T11:48:27.418Z,938.36
2023-04-21T11:49:27.544Z,938.42
2023-04-21T11:50:27.446Z,938.37
2023-04-21T11:51:27.466Z,938.45
2023-04-21T11:52:27.472Z,938.46
2023-04-21T11:53:27.518Z,938.45
2023-04-21T11:54:27.496Z,938.47
2023-04-21T11:55:27.610Z,938.49
2023-04-21T11:56:27.530Z,938.50
2023-04-21T11:57:27.532Z,938.48
2023-04-21T11:58:27.551Z,938.54
2023-04-21T11:59:27.589Z,938.53
2023-04-21T12:00:27.578Z,938.50
2023-04-21T12:01:27.691Z,938.56
2023-04-21T12:02:27.796Z,938.59
2023-04-21T12:03:27.678Z,938.57
2023-04-21T12:04:27.699Z,938.57
2023-04-21T12:05:27.645Z,938.58
2023-04-21T12:06:27.686Z,938.61
2023-04-21T12:07:27.774Z,938.57
2023-04-21T12:08:27.673Z,938.58
2023-04-21T12:09:27.710Z,938.57
2023-04-21T12:10:27.696Z,938.58
2023-04-21T12:11:27.718Z,938.53
2023-04-21T12:12:27.736Z,938.56
2023-04-21T12:13:27.910Z,938.57
2023-04-21T12:14:27.763Z,938.61
2023-04-21T12:15:27.771Z,938.62
2023-04-21T12:16:27.859Z,938.56
2023-04-21T12:17:27.803Z,938.55
2023-04-21T12:18:27.933Z,938.60
2023-04-21T12:19:27.818Z,938.60
2023-04-21T12:20:27.847Z,938.63
2023-04-21T12:21:27.844Z,938.61
2023-04-21T12:22:27.852Z,938.62
2023-04-21T12:23:27.874Z,938.57
2023-04-21T12:24:27.995Z,938.55
2023-04-21T12:25:27.920Z,938.63
2023-04-21T12:26:27.911Z,938.62
2023-04-21T12:27:27.923Z,938.62
2023-04-21T12:28:27.930Z,938.59